Time,TemperatureF,DewpointF,PressureIn,WindDirection,WindDirectionDegrees,WindSpeedMPH,WindSpeedGustMPH,Humidity,HourlyPrecipIn,Conditions,Clouds,dailyrainin,SoftwareType,DateUTC
2013-04-20 00:01:00,25.9,18.1,29.97,SE,135,8.3,10.4,72,0.00,OVC,,0.00,WeatherDisplay:10.37,2013-04-20 06:01:00,
2013-04-20 00:06:00,25.9,18.4,29.97,SE,135,7.7,9.2,73,0.00,OVC,,0.00,WeatherDisplay:10.37,2013-04-20 06:06:00,
2013-04-20 00:11:00,26.1,18.3,29.97,ESE,112,7.3,9.2,72,0.00,OVC,,0.00,WeatherDisplay:10.37,2013-04-20 06:11:00,
2013-04-20 00:16:00,26.1,18.3,29.97,SE,135,10.2,11.5,72,0.00,OVC,,0.00,WeatherDisplay:10.37,2013-04-20 06:16:00,
2013-04-20 00:21:00,26.1,18.3,29.97,SE,135,7.3,8.1,72,0.00,OVC,,0.00,WeatherDisplay:10.37,2013-04-20 06:21:00,
2013-04-20 00:26:00,26.1,18.3,29.97,SE,135,5.7,9.2,72,0.00,OVC,,0.00,WeatherDisplay:10.37,2013-04-20 06:26:00,
2013-04-20 00:31:00,25.9,18.1,29.97,ESE,112,7.2,8.1,72,0.00,OVC,,0.00,WeatherDisplay:10.37,2013-04-20 06:31:00,
2013-04-20 00:36:00,25.9,18.1,29.97,ESE,112,7.5,8.1,72,0.00,OVC,,0.00,WeatherDisplay:10.37,2013-04-20 06:36:00,
2013-04-20 00:41:00,25.5,18.0,29.97,SE,135,6.4,7.3,73,0.00,OVC,,0.00,WeatherDisplay:10.37,2013-04-20 06:41:00,
2013-04-20 00:46:00,25.3,18.2,29.97,ESE,112,5.1,5.8,74,0.00,OVC,,0.00,WeatherDisplay:10.37,2013-04-20 06:46:00,
2013-04-20 00:51:00,25.3,17.9,29.97,SE,135,5.0,8.1,73,0.00,OVC,,0.00,WeatherDisplay:10.37,2013-04-20 06:51:00,
2013-04-20 00:56:00,25.3,17.9,29.97,ESE,112,6.1,8.1,73,0.00,OVC,,0.00,WeatherDisplay:10.37,2013-04-20 06:56:00,
2013-04-20 01:01:00,25.2,17.8,29.97,SE,135,6.5,8.1,73,0.00,OVC,,0.00,WeatherDisplay:10.37,2013-04-20 07:01:00,
2013-04-20 01:06:00,25.3,17.2,29.97,ESE,112,7.8,10.4,71,0.00,OVC,,0.00,WeatherDisplay:10.37,2013-04-20 07:06:00,
2013-04-20 01:11:00,25.5,17.4,29.97,ESE,112,5.7,6.9,71,0.00,OVC,,0.00,WeatherDisplay:10.37,2013-04-20 07:11:00,
2013-04-20 01:16:00,25.7,17.6,29.97,ESE,112,8.5,9.2,71,0.00,OVC,,0.00,WeatherDisplay:10.37,2013-04-20 07:16:00,
2013-04-20 01:21:00,25.7,17.6,29.97,SE,135,10.0,11.5,71,0.00,OVC,,0.00,WeatherDisplay:10.37,2013-04-20 07:21:00,
2013-04-20 01:26:00,25.7,17.9,29.97,SE,135,9.3,12.7,72,0.00,OVC,,0.00,WeatherDisplay:10.37,2013-04-20 07:26:00,
2013-04-20 01:31:00,25.7,17.9,29.97,SE,135,8.4,10.4,72,0.00,OVC,,0.00,WeatherDisplay:10.37,2013-04-20 07:31:00,
2013-04-20 01:37:00,25.7,17.9,29.97,ESE,112,7.4,8.3,72,0.00,OVC,,0.00,WeatherDisplay:10.37,2013-04-20 07:37:00,
2013-04-20 01:42:00,25.7,17.9,29.97,ESE,112,6.8,10.4,72,0.00,OVC,,0.00,WeatherDisplay:10.37,2013-04-20 07:42:00,
2013-04-20 01:47:00,25.7,17.9,29.97,ESE,112,6.5,8.1,72,0.00,OVC,,0.00,WeatherDisplay:10.37,2013-04-20 07:47:00,
2013-04-20 01:52:00,25.7,17.9,29.97,SE,135,7.5,8.1,72,0.00,OVC,,0.00,WeatherDisplay:10.37,2013-04-20 07:52:00,
2013-04-20 01:57:00,25.5,18.0,29.96,ESE,112,7.9,9.2,73,0.00,OVC,,0.00,WeatherDisplay:10.37,2013-04-20 07:57:00,
2013-04-20 02:02:00,25.5,18.0,29.96,ESE,112,8.0,9.2,73,0.00,BKN,,0.00,WeatherDisplay:10.37,2013-04-20 08:02:00,
2013-04-20 02:07:00,25.3,17.9,29.96,SSE,158,8.3,10.4,73,0.00,BKN,,0.00,WeatherDisplay:10.37,2013-04-20 08:07:00,
2013-04-20 02:12:00,25.2,17.8,29.96,SE,135,8.8,10.4,73,0.00,BKN,,0.00,WeatherDisplay:10.37,2013-04-20 08:12:00,
2013-04-20 02:17:00,25.0,17.9,29.96,SSE,158,7.7,10.4,74,0.00,BKN,,0.00,WeatherDisplay:10.37,2013-04-20 08:17:00,
2013-04-20 02:22:00,25.0,17.9,29.96,ESE,112,7.6,9.2,74,0.00,BKN,,0.00,WeatherDisplay:10.37,2013-04-20 08:22:00,
2013-04-20 02:27:00,24.8,17.7,29.96,ESE,112,9.7,11.5,74,0.00,BKN,,0.00,WeatherDisplay:10.37,2013-04-20 08:27:00,
2013-04-20 02:32:00,24.8,17.7,29.96,SSE,158,6.7,6.9,74,0.00,BKN,,0.00,WeatherDisplay:10.37,2013-04-20 08:32:00,
2013-04-20 02:37:00,24.8,17.7,29.96,ESE,112,8.0,10.4,74,0.00,BKN,,0.00,WeatherDisplay:10.37,2013-04-20 08:37:00,
2013-04-20 02:42:00,25.0,17.9,29.95,ESE,112,5.2,6.9,74,0.00,BKN,,0.00,WeatherDisplay:10.37,2013-04-20 08:42:00,
2013-04-20 02:47:00,25.0,17.9,29.95,SE,135,5.9,7.3,74,0.00,BKN,,0.00,WeatherDisplay:10.37,2013-04-20 08:47:00,
2013-04-20 02:52:00,25.3,17.9,29.95,SE,135,7.0,9.9,73,0.00,BKN,,0.00,WeatherDisplay:10.37,2013-04-20 08:52:00,
2013-04-20 02:57:00,25.3,17.9,29.95,ESE,112,8.3,8.3,73,0.00,BKN,,0.00,WeatherDisplay:10.37,2013-04-20 08:57:00,
2013-04-20 03:02:00,25.3,17.9,29.95,SSE,158,7.4,9.4,73,0.00,BKN,,0.00,WeatherDisplay:10.37,2013-04-20 09:02:00,
2013-04-20 03:07:00,25.5,17.7,29.95,SE,135,9.9,11.5,72,0.00,BKN,,0.00,WeatherDisplay:10.37,2013-04-20 09:07:00,
2013-04-20 03:12:00,25.7,17.9,29.95,SSE,158,9.9,12.7,72,0.00,OVC,,0.00,WeatherDisplay:10.37,2013-04-20 09:12:00,
2013-04-20 03:17:00,25.7,17.6,29.95,SE,135,8.4,9.4,71,0.00,OVC,,0.00,WeatherDisplay:10.37,2013-04-20 09:17:00,
2013-04-20 03:22:00,25.9,17.8,29.95,ESE,112,9.4,11.4,71,0.00,OVC,,0.00,WeatherDisplay:10.37,2013-04-20 09:22:00,
2013-04-20 03:27:00,26.1,17.6,29.95,ESE,112,9.3,10.4,70,0.00,OVC,,0.00,WeatherDisplay:10.37,2013-04-20 09:27:00,
2013-04-20 03:32:00,26.1,17.3,29.95,SE,135,9.7,10.9,69,0.00,OVC,,0.00,WeatherDisplay:10.37,2013-04-20 09:32:00,
2013-04-20 03:37:00,26.1,17.0,29.95,SE,135,8.5,11.5,68,0.00,OVC,,0.00,WeatherDisplay:10.37,2013-04-20 09:37:00,
2013-04-20 03:42:00,26.1,17.0,29.95,SE,135,11.8,16.1,68,0.00,OVC,,0.00,WeatherDisplay:10.37,2013-04-20 09:42:00,
2013-04-20 03:47:00,26.1,17.3,29.95,SSE,158,10.7,16.6,69,0.00,OVC,,0.00,WeatherDisplay:10.37,2013-04-20 09:47:00,
2013-04-20 03:52:00,26.1,17.3,29.95,ESE,112,10.6,12.7,69,0.00,OVC,,0.00,WeatherDisplay:10.37,2013-04-20 09:52:00,
2013-04-20 03:57:00,26.1,17.3,29.94,ESE,112,13.0,13.0,69,0.00,OVC,,0.00,WeatherDisplay:10.37,2013-04-20 09:57:00,
2013-04-20 04:02:00,26.1,17.3,29.94,SSE,158,10.2,12.7,69,0.00,OVC,,0.00,WeatherDisplay:10.37,2013-04-20 10:02:00,
2013-04-20 04:07:00,26.1,17.6,29.95,SE,135,11.5,11.5,70,0.00,OVC,,0.00,WeatherDisplay:10.37,2013-04-20 10:07:00,
2013-04-20 04:12:00,25.9,17.8,29.95,SSE,158,10.2,13.8,71,0.00,OVC,,0.00,WeatherDisplay:10.37,2013-04-20 10:12:00,
2013-04-20 04:17:00,25.9,17.8,29.94,SE,135,8.3,8.3,71,0.00,OVC,,0.00,WeatherDisplay:10.37,2013-04-20 10:17:00,
2013-04-20 04:22:00,25.9,18.1,29.94,SSE,158,9.3,10.4,72,0.00,OVC,,0.00,WeatherDisplay:10.37,2013-04-20 10:22:00,
2013-04-20 04:27:00,25.7,17.9,29.94,SE,135,9.7,10.4,72,0.00,OVC,,0.00,WeatherDisplay:10.37,2013-04-20 10:27:00,
2013-04-20 04:32:00,25.7,17.9,29.94,ESE,112,8.0,9.2,72,0.00,OVC,,0.00,WeatherDisplay:10.37,2013-04-20 10:32:00,
2013-04-20 04:37:00,25.7,17.9,29.94,ESE,112,9.4,10.4,72,0.00,OVC,,0.00,WeatherDisplay:10.37,2013-04-20 10:37:00,
2013-04-20 04:42:00,25.7,17.9,29.94,SSE,158,9.5,12.7,72,0.00,OVC,,0.00,WeatherDisplay:10.37,2013-04-20 10:42:00,
2013-04-20 04:47:00,25.7,18.2,29.94,ESE,112,6.9,8.8,73,0.00,OVC,,0.00,WeatherDisplay:10.37,2013-04-20 10:47:00,
2013-04-20 04:52:00,25.7,18.2,29.94,SSE,158,11.1,13.0,73,0.00,OVC,,0.00,WeatherDisplay:10.37,2013-04-20 10:52:00,
2013-04-20 04:57:00,25.7,17.9,29.94,SE,135,9.2,13.8,72,0.00,OVC,,0.00,WeatherDisplay:10.37,2013-04-20 10:57:00,
2013-04-20 05:02:00,25.9,17.8,29.94,SE,135,10.6,11.5,71,0.00,OVC,,0.00,WeatherDisplay:10.37,2013-04-20 11:02:00,
2013-04-20 05:07:00,25.9,17.8,29.93,ESE,112,9.3,11.5,71,0.00,OVC,,0.00,WeatherDisplay:10.37,2013-04-20 11:07:00,
2013-04-20 05:12:00,25.9,17.8,29.93,SE,135,10.7,12.7,71,0.00,OVC,,0.00,WeatherDisplay:10.37,2013-04-20 11:12:00,
2013-04-20 05:17:00,25.9,17.5,29.94,SSE,158,10.4,13.8,70,0.00,OVC,,0.00,WeatherDisplay:10.37,2013-04-20 11:17:00,
2013-04-20 05:22:00,25.9,17.5,29.94,ESE,112,12.8,13.8,70,0.00,OVC,,0.00,WeatherDisplay:10.37,2013-04-20 11:22:00,
2013-04-20 05:27:00,25.9,17.5,29.94,ESE,112,10.9,10.9,70,0.00,OVC,,0.00,WeatherDisplay:10.37,2013-04-20 11:27:00,
2013-04-20 05:32:00,25.9,17.8,29.94,SE,135,12.4,13.5,71,0.00,OVC,,0.00,WeatherDisplay:10.37,2013-04-20 11:32:00,
2013-04-20 05:37:00,25.7,17.9,29.94,SSE,158,10.3,10.9,72,0.00,OVC,,0.00,WeatherDisplay:10.37,2013-04-20 11:37:00,
2013-04-20 05:42:00,25.7,17.9,29.94,ESE,112,10.0,15.0,72,0.00,OVC,,0.00,WeatherDisplay:10.37,2013-04-20 11:42:00,
2013-04-20 05:47:00,25.7,17.9,29.94,ESE,112,9.1,11.5,72,0.00,OVC,,0.00,WeatherDisplay:10.37,2013-04-20 11:47:00,
2013-04-20 05:52:00,25.7,17.6,29.94,ESE,112,9.5,13.8,71,0.00,OVC,,0.00,WeatherDisplay:10.37,2013-04-20 11:52:00,
2013-04-20 05:57:00,25.7,17.3,29.94,SSE,158,12.0,13.5,70,0.00,OVC,,0.00,WeatherDisplay:10.37,2013-04-20 11:57:00,
2013-04-20 06:02:00,25.9,17.1,29.94,ESE,112,12.8,14.0,69,0.00,OVC,,0.00,WeatherDisplay:10.37,2013-04-20 12:02:00,
2013-04-20 06:07:00,26.1,16.3,29.94,SE,135,15.6,17.1,66,0.00,OVC,,0.00,WeatherDisplay:10.37,2013-04-20 12:07:00,
2013-04-20 06:12:00,26.1,16.3,29.94,SE,135,11.7,15.0,66,0.00,OVC,,0.00,WeatherDisplay:10.37,2013-04-20 12:12:00,
2013-04-20 06:17:00,26.1,15.9,29.94,ESE,112,13.4,16.1,65,0.00,OVC,,0.00,WeatherDisplay:10.37,2013-04-20 12:17:00,
2013-04-20 06:22:00,26.1,15.9,29.94,SE,135,11.7,13.8,65,0.00,OVC,,0.00,WeatherDisplay:10.37,2013-04-20 12:22:00,
2013-04-20 06:27:00,26.1,16.3,29.94,South,180,12.3,14.0,66,0.00,OVC,,0.00,WeatherDisplay:10.37,2013-04-20 12:27:00,
2013-04-20 06:32:00,26.1,16.3,29.94,SE,135,17.1,19.6,66,0.00,OVC,,0.00,WeatherDisplay:10.37,2013-04-20 12:32:00,
2013-04-20 06:37:00,26.1,16.6,29.94,SE,135,15.6,19.6,67,0.00,OVC,,0.00,WeatherDisplay:10.37,2013-04-20 12:37:00,
2013-04-20 06:42:00,26.1,17.3,29.93,ESE,112,13.7,19.1,69,0.00,OVC,,0.00,WeatherDisplay:10.37,2013-04-20 12:42:00,
2013-04-20 06:47:00,25.9,17.5,29.93,SE,135,14.3,17.1,70,0.00,OVC,,0.00,WeatherDisplay:10.37,2013-04-20 12:47:00,
2013-04-20 06:52:00,25.9,17.5,29.93,ESE,112,10.5,16.1,70,0.00,OVC,,0.00,WeatherDisplay:10.37,2013-04-20 12:52:00,
2013-04-20 06:57:00,25.9,17.5,29.93,SSE,158,9.4,9.4,70,0.00,OVC,,0.00,WeatherDisplay:10.37,2013-04-20 12:57:00,
2013-04-20 07:02:00,26.1,17.6,29.93,ESE,112,9.3,13.8,70,0.00,OVC,,0.00,WeatherDisplay:10.37,2013-04-20 13:02:00,
2013-04-20 07:07:00,26.1,17.6,29.94,ESE,112,10.5,12.7,70,0.00,OVC,,0.00,WeatherDisplay:10.37,2013-04-20 13:07:00,
2013-04-20 07:12:00,26.2,17.7,29.94,ESE,112,9.7,10.4,70,0.00,OVC,,0.00,WeatherDisplay:10.37,2013-04-20 13:12:00,
2013-04-20 07:17:00,26.4,17.9,29.94,ESE,112,12.2,15.5,70,0.00,OVC,,0.00,WeatherDisplay:10.37,2013-04-20 13:17:00,
2013-04-20 07:22:00,26.6,18.1,29.94,ESE,112,10.1,16.6,70,0.00,OVC,,0.00,WeatherDisplay:10.37,2013-04-20 13:22:00,
2013-04-20 07:27:00,26.6,18.1,29.94,SE,135,9.1,11.5,70,0.00,OVC,,0.00,WeatherDisplay:10.37,2013-04-20 13:27:00,
2013-04-20 07:32:00,26.8,18.3,29.94,SE,135,12.8,15.0,70,0.00,OVC,,0.00,WeatherDisplay:10.37,2013-04-20 13:32:00,
2013-04-20 07:37:00,26.8,18.3,29.94,SE,135,15.3,17.3,70,0.00,OVC,,0.00,WeatherDisplay:10.37,2013-04-20 13:37:00,
2013-04-20 07:42:00,26.8,18.7,29.93,SE,135,10.3,13.8,71,0.00,OVC,,0.00,WeatherDisplay:10.37,2013-04-20 13:42:00,
2013-04-20 07:47:00,26.6,19.4,29.93,ESE,112,10.9,18.4,74,0.00,OVC,,0.00,WeatherDisplay:10.37,2013-04-20 13:47:00,
2013-04-20 07:52:00,26.4,19.5,29.93,ESE,112,17.0,20.7,75,0.00,OVC,,0.00,WeatherDisplay:10.37,2013-04-20 13:52:00,
2013-04-20 07:57:00,26.4,19.9,29.93,ESE,112,14.8,20.2,76,0.00,OVC,,0.00,WeatherDisplay:10.37,2013-04-20 13:57:00,
2013-04-20 08:02:00,26.4,19.9,29.93,SE,135,15.0,15.0,76,0.00,OVC,,0.00,WeatherDisplay:10.37,2013-04-20 14:02:00,
2013-04-20 08:07:00,26.6,20.4,29.93,ESE,112,15.0,17.3,77,0.00,OVC,,0.00,WeatherDisplay:10.37,2013-04-20 14:07:00,
2013-04-20 08:12:00,26.6,20.7,29.93,SE,135,15.0,16.1,78,0.00,OVC,,0.00,WeatherDisplay:10.37,2013-04-20 14:12:00,
2013-04-20 08:17:00,26.6,20.7,29.93,SE,135,17.1,19.6,78,0.00,OVC,,0.00,WeatherDisplay:10.37,2013-04-20 14:17:00,
2013-04-20 08:23:00,26.4,20.5,29.93,SE,135,21.0,25.3,78,0.00,OVC,,0.00,WeatherDisplay:10.37,2013-04-20 14:23:00,
2013-04-20 08:28:00,26.4,20.5,29.93,SE,135,19.6,19.6,78,0.00,OVC,,0.00,WeatherDisplay:10.37,2013-04-20 14:28:00,
2013-04-20 08:33:00,26.8,21.2,29.93,ESE,112,15.8,17.3,79,0.00,OVC,,0.00,WeatherDisplay:10.37,2013-04-20 14:33:00,
2013-04-20 08:38:00,26.8,21.2,29.93,ESE,112,14.3,17.3,79,0.00,OVC,,0.00,WeatherDisplay:10.37,2013-04-20 14:38:00,
2013-04-20 08:43:00,27.0,21.7,29.93,ESE,112,15.3,21.7,80,0.00,OVC,,0.00,WeatherDisplay:10.37,2013-04-20 14:43:00,
2013-04-20 08:48:00,27.0,21.7,29.93,SE,135,16.7,20.7,80,0.00,OVC,,0.00,WeatherDisplay:10.37,2013-04-20 14:48:00,
2013-04-20 08:53:00,27.1,21.7,29.93,ESE,112,15.5,17.3,80,0.00,OVC,,0.00,WeatherDisplay:10.37,2013-04-20 14:53:00,
2013-04-20 08:58:00,27.5,22.4,29.93,ESE,112,14.7,16.1,81,0.00,OVC,,0.00,WeatherDisplay:10.37,2013-04-20 14:58:00,
2013-04-20 09:03:00,27.5,22.4,29.93,ESE,112,11.9,15.0,81,0.00,-SN,,0.00,WeatherDisplay:10.37,2013-04-20 15:03:00,
2013-04-20 09:08:00,27.5,22.7,29.93,SE,135,16.6,21.2,82,0.00,-SN,,0.00,WeatherDisplay:10.37,2013-04-20 15:08:00,
2013-04-20 09:13:00,27.5,22.7,29.93,ESE,112,18.6,20.7,82,0.00,-SN,,0.00,WeatherDisplay:10.37,2013-04-20 15:13:00,
2013-04-20 09:18:00,27.5,22.7,29.92,SE,135,16.9,19.6,82,0.00,-SN,,0.00,WeatherDisplay:10.37,2013-04-20 15:18:00,
2013-04-20 09:23:00,27.7,22.6,29.92,ESE,112,19.2,21.9,81,0.00,-SN,,0.00,WeatherDisplay:10.37,2013-04-20 15:23:00,
2013-04-20 09:28:00,27.9,22.8,29.91,SE,135,16.2,18.4,81,0.00,-SN,,0.00,WeatherDisplay:10.37,2013-04-20 15:28:00,
2013-04-20 09:33:00,28.0,22.9,29.91,ESE,112,13.5,20.2,81,0.00,-SN,,0.00,WeatherDisplay:10.37,2013-04-20 15:33:00,
2013-04-20 09:38:00,27.9,23.1,29.91,SE,135,14.5,16.1,82,0.00,-SN,,0.00,WeatherDisplay:10.37,2013-04-20 15:38:00,
2013-04-20 09:43:00,27.9,23.4,29.91,ESE,112,11.5,15.0,83,0.00,-SN,,0.00,WeatherDisplay:10.37,2013-04-20 15:43:00,
2013-04-20 09:48:00,28.2,23.7,29.91,SSE,158,11.5,16.1,83,0.00,-SN,,0.00,WeatherDisplay:10.37,2013-04-20 15:48:00,
2013-04-20 09:53:00,28.0,23.2,29.92,SE,135,15.5,16.1,82,0.00,-SN,,0.00,WeatherDisplay:10.37,2013-04-20 15:53:00,
2013-04-20 09:58:00,27.9,23.1,29.92,SE,135,17.7,20.7,82,0.00,-SN,,0.00,WeatherDisplay:10.37,2013-04-20 15:58:00,
2013-04-20 10:03:00,28.0,23.2,29.92,ESE,112,12.7,13.8,82,0.00,-SN,,0.00,WeatherDisplay:10.37,2013-04-20 16:03:00,
2013-04-20 10:08:00,28.0,23.2,29.92,SE,135,16.0,18.4,82,0.00,-SN,,0.00,WeatherDisplay:10.37,2013-04-20 16:08:00,
2013-04-20 10:13:00,27.9,23.4,29.92,ESE,112,14.0,17.3,83,0.00,-SN,,0.00,WeatherDisplay:10.37,2013-04-20 16:13:00,
2013-04-20 10:18:00,27.9,23.4,29.93,ESE,112,13.5,21.9,83,0.00,-SN,,0.00,WeatherDisplay:10.37,2013-04-20 16:18:00,
2013-04-20 10:23:00,28.4,23.9,29.93,ESE,112,13.0,13.8,83,0.00,-SN,,0.00,WeatherDisplay:10.37,2013-04-20 16:23:00,
2013-04-20 10:28:00,28.4,23.9,29.92,ESE,112,14.7,16.1,83,0.00,-SN,,0.00,WeatherDisplay:10.37,2013-04-20 16:28:00,
2013-04-20 10:33:00,28.8,24.0,29.92,SSE,158,14.8,18.4,82,0.00,-SN,,0.00,WeatherDisplay:10.37,2013-04-20 16:33:00,
2013-04-20 10:38:00,29.1,24.3,29.92,SE,135,15.5,18.4,82,0.00,-SN,,0.00,WeatherDisplay:10.37,2013-04-20 16:38:00,
2013-04-20 10:43:00,29.1,24.0,29.92,SE,135,12.7,15.0,81,0.00,-SN,,0.00,WeatherDisplay:10.37,2013-04-20 16:43:00,
2013-04-20 10:48:00,29.3,24.2,29.92,SE,135,12.1,17.3,81,0.00,-SN,,0.00,WeatherDisplay:10.37,2013-04-20 16:48:00,
2013-04-20 10:53:00,29.7,24.6,29.92,ESE,112,12.0,12.7,81,0.00,-SN,,0.00,WeatherDisplay:10.37,2013-04-20 16:53:00,
2013-04-20 10:58:00,30.2,25.1,29.92,SE,135,10.5,14.0,81,0.00,-SN,,0.00,WeatherDisplay:10.37,2013-04-20 16:58:00,
2013-04-20 11:03:00,30.0,24.6,29.92,ESE,112,15.2,16.1,80,0.00,OVC,,0.00,WeatherDisplay:10.37,2013-04-20 17:03:00,
2013-04-20 11:08:00,30.0,24.3,29.92,SE,135,15.0,17.3,79,0.00,OVC,,0.00,WeatherDisplay:10.37,2013-04-20 17:08:00,
2013-04-20 11:13:00,30.4,24.7,29.92,SSE,158,14.3,16.1,79,0.00,OVC,,0.00,WeatherDisplay:10.37,2013-04-20 17:13:00,
2013-04-20 11:18:00,30.6,25.2,29.92,ESE,112,9.9,11.5,80,0.00,OVC,,0.00,WeatherDisplay:10.37,2013-04-20 17:18:00,
2013-04-20 11:23:00,30.4,25.0,29.92,SE,135,17.5,20.7,80,0.00,OVC,,0.00,WeatherDisplay:10.37,2013-04-20 17:23:00,
2013-04-20 11:28:00,30.6,24.9,29.92,SSE,158,13.6,17.3,79,0.00,OVC,,0.00,WeatherDisplay:10.37,2013-04-20 17:28:00,
2013-04-20 11:33:00,31.1,25.3,29.92,SSE,158,8.8,11.5,79,0.00,OVC,,0.00,WeatherDisplay:10.37,2013-04-20 17:33:00,
2013-04-20 11:38:00,30.9,25.2,29.92,South,180,12.6,16.1,79,0.00,OVC,,0.00,WeatherDisplay:10.37,2013-04-20 17:38:00,
2013-04-20 11:43:00,30.6,24.9,29.93,ESE,112,11.4,11.5,79,0.00,OVC,,0.00,WeatherDisplay:10.37,2013-04-20 17:43:00,
2013-04-20 11:48:00,30.6,25.5,29.93,ESE,112,11.3,13.8,81,0.00,OVC,,0.00,WeatherDisplay:10.37,2013-04-20 17:48:00,
2013-04-20 11:53:00,30.6,25.8,29.92,ESE,112,8.3,10.4,82,0.00,OVC,,0.00,WeatherDisplay:10.37,2013-04-20 17:53:00,
2013-04-20 11:58:00,30.9,26.3,29.92,East,90,11.3,19.1,83,0.00,OVC,,0.00,WeatherDisplay:10.37,2013-04-20 17:58:00,
2013-04-20 12:03:00,31.1,26.2,29.92,SSE,158,10.3,12.4,82,0.00,-SN,,0.00,WeatherDisplay:10.37,2013-04-20 18:03:00,
2013-04-20 12:08:00,31.3,26.1,29.91,SSE,158,9.5,11.5,81,0.00,-SN,,0.00,WeatherDisplay:10.37,2013-04-20 18:08:00,
2013-04-20 12:13:00,31.5,26.0,29.91,ESE,112,10.9,12.7,80,0.00,-SN,,0.00,WeatherDisplay:10.37,2013-04-20 18:13:00,
2013-04-20 12:18:00,31.5,26.0,29.92,South,180,12.1,16.1,80,0.00,-SN,,0.00,WeatherDisplay:10.37,2013-04-20 18:18:00,
2013-04-20 12:23:00,31.8,26.0,29.92,SSE,158,15.4,16.1,79,0.00,-SN,,0.00,WeatherDisplay:10.37,2013-04-20 18:23:00,
2013-04-20 12:28:00,31.6,25.8,29.91,ESE,112,15.6,20.7,79,0.00,-SN,,0.00,WeatherDisplay:10.37,2013-04-20 18:28:00,
2013-04-20 12:33:00,32.4,26.6,29.91,South,180,14.7,20.7,79,0.00,-SN,,0.00,WeatherDisplay:10.37,2013-04-20 18:33:00,
2013-04-20 12:38:00,32.2,26.1,29.91,SE,135,14.9,18.4,78,0.00,-SN,,0.00,WeatherDisplay:10.37,2013-04-20 18:38:00,
2013-04-20 12:43:00,32.9,26.5,29.90,SE,135,13.8,16.1,77,0.00,-SN,,0.00,WeatherDisplay:10.37,2013-04-20 18:43:00,
2013-04-20 12:48:00,32.9,26.5,29.90,ESE,112,13.3,16.1,77,0.00,-SN,,0.00,WeatherDisplay:10.37,2013-04-20 18:48:00,
2013-04-20 12:53:00,33.3,26.9,29.90,SE,135,16.0,16.1,77,0.00,-SN,,0.00,WeatherDisplay:10.37,2013-04-20 18:53:00,
2013-04-20 12:58:00,33.3,26.5,29.90,SSE,158,13.9,17.3,76,0.00,-SN,,0.00,WeatherDisplay:10.37,2013-04-20 18:58:00,
2013-04-20 13:03:00,33.4,26.6,29.90,SSE,158,14.1,17.1,76,0.00,OVC,,0.00,WeatherDisplay:10.37,2013-04-20 19:03:00,
2013-04-20 13:08:00,33.6,26.8,29.90,SE,135,11.1,13.8,76,0.00,OVC,,0.00,WeatherDisplay:10.37,2013-04-20 19:08:00,
2013-04-20 13:13:00,33.4,26.6,29.90,SE,135,18.2,20.2,76,0.00,OVC,,0.00,WeatherDisplay:10.37,2013-04-20 19:13:00,
2013-04-20 13:18:00,33.4,27.0,29.89,SSW,202,12.2,15.0,77,0.00,OVC,,0.00,WeatherDisplay:10.37,2013-04-20 19:18:00,
2013-04-20 13:23:00,33.8,27.0,29.89,SE,135,12.8,15.5,76,0.00,OVC,,0.00,WeatherDisplay:10.37,2013-04-20 19:23:00,
2013-04-20 13:28:00,34.3,27.5,29.89,SE,135,15.3,17.6,76,0.00,OVC,,0.00,WeatherDisplay:10.37,2013-04-20 19:28:00,
2013-04-20 13:33:00,34.2,27.4,29.89,SSE,158,13.0,13.0,76,0.00,OVC,,0.00,WeatherDisplay:10.37,2013-04-20 19:33:00,
2013-04-20 13:38:00,34.2,27.4,29.89,SSE,158,12.9,12.9,76,0.00,OVC,,0.00,WeatherDisplay:10.37,2013-04-20 19:38:00,
2013-04-20 13:43:00,34.3,27.2,29.89,SSE,158,13.8,18.4,75,0.00,OVC,,0.00,WeatherDisplay:10.37,2013-04-20 19:43:00,
2013-04-20 13:48:00,34.5,27.7,29.89,SSE,158,14.2,19.1,76,0.00,OVC,,0.00,WeatherDisplay:10.37,2013-04-20 19:48:00,
2013-04-20 13:53:00,35.1,28.0,29.89,SE,135,12.2,13.8,75,0.00,OVC,,0.00,WeatherDisplay:10.37,2013-04-20 19:53:00,
2013-04-20 13:58:00,35.1,28.3,29.89,SE,135,10.2,12.4,76,0.00,OVC,,0.00,WeatherDisplay:10.37,2013-04-20 19:58:00,
2013-04-20 14:03:00,34.5,27.7,29.89,ESE,112,13.7,16.1,76,0.00,OVC,,0.00,WeatherDisplay:10.37,2013-04-20 20:03:00,
2013-04-20 14:08:00,34.5,27.7,29.89,SE,135,12.5,15.0,76,0.00,OVC,,0.00,WeatherDisplay:10.37,2013-04-20 20:08:00,
2013-04-20 14:13:00,34.5,28.0,29.89,SSE,158,13.2,15.0,77,0.00,OVC,,0.00,WeatherDisplay:10.37,2013-04-20 20:13:00,
2013-04-20 14:18:00,34.3,27.8,29.89,South,180,18.0,19.6,77,0.00,OVC,,0.00,WeatherDisplay:10.37,2013-04-20 20:18:00,
2013-04-20 14:23:00,34.5,28.0,29.89,ESE,112,11.6,13.8,77,0.00,OVC,,0.00,WeatherDisplay:10.37,2013-04-20 20:23:00,
2013-04-20 14:28:00,34.7,28.2,29.89,SSE,158,10.5,13.8,77,0.00,OVC,,0.00,WeatherDisplay:10.37,2013-04-20 20:28:00,
2013-04-20 14:33:00,35.1,28.6,29.89,ESE,112,8.2,13.8,77,0.00,OVC,,0.00,WeatherDisplay:10.37,2013-04-20 20:33:00,
2013-04-20 14:38:00,34.7,28.2,29.89,ESE,112,13.6,15.5,77,0.00,OVC,,0.00,WeatherDisplay:10.37,2013-04-20 20:38:00,
2013-04-20 14:43:00,34.7,28.2,29.89,SE,135,12.6,19.6,77,0.00,OVC,,0.00,WeatherDisplay:10.37,2013-04-20 20:43:00,
2013-04-20 14:48:00,34.9,28.4,29.89,ESE,112,11.6,15.0,77,0.00,OVC,,0.00,WeatherDisplay:10.37,2013-04-20 20:48:00,
2013-04-20 14:54:00,35.2,28.7,29.89,SE,135,10.5,13.8,77,0.00,OVC,,0.00,WeatherDisplay:10.37,2013-04-20 20:54:00,
2013-04-20 14:58:00,35.4,28.9,29.89,SSE,158,8.7,16.1,77,0.00,OVC,,0.00,WeatherDisplay:10.37,2013-04-20 20:58:00,
2013-04-20 15:04:00,35.6,29.1,29.89,SSE,158,12.4,13.8,77,0.00,OVC,,0.00,WeatherDisplay:10.37,2013-04-20 21:04:00,
2013-04-20 15:09:00,35.2,28.7,29.88,SE,135,14.1,16.1,77,0.00,OVC,,0.00,WeatherDisplay:10.37,2013-04-20 21:09:00,
2013-04-20 15:14:00,35.4,28.9,29.88,SE,135,10.4,18.4,77,0.00,OVC,,0.00,WeatherDisplay:10.37,2013-04-20 21:14:00,
2013-04-20 15:19:00,35.4,28.6,29.88,SSE,158,13.0,15.0,76,0.00,OVC,,0.00,WeatherDisplay:10.37,2013-04-20 21:19:00,
2013-04-20 15:24:00,35.4,28.9,29.88,ESE,112,12.4,12.7,77,0.00,OVC,,0.00,WeatherDisplay:10.37,2013-04-20 21:24:00,
2013-04-20 15:29:00,36.0,29.5,29.87,ESE,112,12.5,13.8,77,0.00,OVC,,0.00,WeatherDisplay:10.37,2013-04-20 21:29:00,
2013-04-20 15:34:00,36.0,29.5,29.87,SSE,158,14.4,16.1,77,0.00,OVC,,0.00,WeatherDisplay:10.37,2013-04-20 21:34:00,
2013-04-20 15:39:00,36.1,29.3,29.87,SE,135,12.0,16.1,76,0.00,OVC,,0.00,WeatherDisplay:10.37,2013-04-20 21:39:00,
2013-04-20 15:44:00,36.3,29.5,29.87,SE,135,11.1,13.8,76,0.00,OVC,,0.00,WeatherDisplay:10.37,2013-04-20 21:44:00,
2013-04-20 15:49:00,36.1,29.3,29.87,ESE,112,10.3,12.7,76,0.00,OVC,,0.00,WeatherDisplay:10.37,2013-04-20 21:49:00,
2013-04-20 15:54:00,36.3,29.8,29.87,South,180,10.3,13.0,77,0.00,OVC,,0.00,WeatherDisplay:10.37,2013-04-20 21:54:00,
2013-04-20 15:59:00,36.1,29.6,29.87,ESE,112,11.8,15.0,77,0.00,OVC,,0.00,WeatherDisplay:10.37,2013-04-20 21:59:00,
2013-04-20 16:04:00,36.3,29.5,29.86,SSE,158,14.4,16.1,76,0.00,OVC,,0.00,WeatherDisplay:10.37,2013-04-20 22:04:00,
2013-04-20 16:09:00,37.0,30.1,29.86,ESE,112,13.0,14.0,76,0.00,OVC,,0.00,WeatherDisplay:10.37,2013-04-20 22:09:00,
2013-04-20 16:14:00,36.5,29.7,29.86,SE,135,13.5,13.5,76,0.00,OVC,,0.00,WeatherDisplay:10.37,2013-04-20 22:14:00,
2013-04-20 16:19:00,36.3,29.5,29.85,SSE,158,13.8,15.0,76,0.00,OVC,,0.00,WeatherDisplay:10.37,2013-04-20 22:19:00,
2013-04-20 16:24:00,36.3,29.5,29.85,SSE,158,13.5,13.8,76,0.00,OVC,,0.00,WeatherDisplay:10.37,2013-04-20 22:24:00,
2013-04-20 16:29:00,36.9,30.4,29.85,SE,135,10.2,15.0,77,0.00,OVC,,0.00,WeatherDisplay:10.37,2013-04-20 22:29:00,
2013-04-20 16:34:00,36.5,30.0,29.85,SE,135,14.1,17.3,77,0.00,OVC,,0.00,WeatherDisplay:10.37,2013-04-20 22:34:00,
2013-04-20 16:39:00,36.5,30.0,29.85,ESE,112,7.9,10.4,77,0.00,OVC,,0.00,WeatherDisplay:10.37,2013-04-20 22:39:00,
2013-04-20 16:44:00,36.1,29.9,29.85,SE,135,9.4,15.0,78,0.00,OVC,,0.00,WeatherDisplay:10.37,2013-04-20 22:44:00,
2013-04-20 16:49:00,36.1,29.9,29.85,ESE,112,15.6,17.3,78,0.00,OVC,,0.00,WeatherDisplay:10.37,2013-04-20 22:49:00,
2013-04-20 16:54:00,36.3,30.1,29.85,ESE,112,8.8,13.0,78,0.00,OVC,,0.00,WeatherDisplay:10.37,2013-04-20 22:54:00,
2013-04-20 16:59:00,36.0,29.8,29.85,SSE,158,12.2,16.1,78,0.00,OVC,,0.00,WeatherDisplay:10.37,2013-04-20 22:59:00,
2013-04-20 17:04:00,36.0,30.1,29.85,SSE,158,9.5,16.0,79,0.00,OVC,,0.00,WeatherDisplay:10.37,2013-04-20 23:04:00,
2013-04-20 17:09:00,35.8,29.9,29.85,SE,135,9.1,15.0,79,0.00,OVC,,0.00,WeatherDisplay:10.37,2013-04-20 23:09:00,
2013-04-20 17:14:00,36.1,30.2,29.85,SE,135,11.5,18.4,79,0.00,OVC,,0.00,WeatherDisplay:10.37,2013-04-20 23:14:00,
2013-04-20 17:19:00,36.0,30.1,29.85,ESE,112,12.3,15.0,79,0.00,OVC,,0.00,WeatherDisplay:10.37,2013-04-20 23:19:00,
2013-04-20 17:24:00,35.8,29.9,29.85,SSE,158,14.1,17.3,79,0.00,OVC,,0.00,WeatherDisplay:10.37,2013-04-20 23:24:00,
2013-04-20 17:29:00,36.1,30.5,29.85,SE,135,8.7,13.0,80,0.00,OVC,,0.00,WeatherDisplay:10.37,2013-04-20 23:29:00,
2013-04-20 17:34:00,35.8,30.2,29.85,ESE,112,12.4,15.0,80,0.00,OVC,,0.00,WeatherDisplay:10.37,2013-04-20 23:34:00,
2013-04-20 17:39:00,35.6,30.0,29.85,SE,135,13.8,15.0,80,0.00,OVC,,0.00,WeatherDisplay:10.37,2013-04-20 23:39:00,
2013-04-20 17:44:00,35.4,30.1,29.84,ESE,112,12.6,15.0,81,0.00,OVC,,0.00,WeatherDisplay:10.37,2013-04-20 23:44:00,
2013-04-20 17:49:00,35.2,30.0,29.84,ESE,112,10.4,10.4,81,0.00,OVC,,0.00,WeatherDisplay:10.37,2013-04-20 23:49:00,
2013-04-20 17:54:00,35.4,30.1,29.84,SSE,158,10.6,13.8,81,0.00,OVC,,0.00,WeatherDisplay:10.37,2013-04-20 23:54:00,
2013-04-20 17:59:00,35.2,30.3,29.84,ESE,112,10.2,10.4,82,0.00,OVC,,0.00,WeatherDisplay:10.37,2013-04-20 23:59:00,
2013-04-20 18:04:00,35.1,30.2,29.85,SE,135,10.8,11.5,82,0.00,OVC,,0.00,WeatherDisplay:10.37,2013-04-21 00:04:00,
2013-04-20 18:09:00,34.9,30.0,29.85,SSE,158,14.5,18.4,82,0.00,OVC,,0.00,WeatherDisplay:10.37,2013-04-21 00:09:00,
2013-04-20 18:14:00,34.9,30.0,29.85,SSE,158,18.1,18.4,82,0.00,OVC,,0.00,WeatherDisplay:10.37,2013-04-21 00:14:00,
2013-04-20 18:19:00,34.9,30.3,29.85,SSE,158,11.4,13.8,83,0.00,OVC,,0.00,WeatherDisplay:10.37,2013-04-21 00:19:00,
2013-04-20 18:24:00,34.7,30.1,29.85,SSE,158,14.4,16.1,83,0.00,OVC,,0.00,WeatherDisplay:10.37,2013-04-21 00:24:00,
2013-04-20 18:29:00,34.7,30.4,29.85,SE,135,12.3,16.1,84,0.00,OVC,,0.00,WeatherDisplay:10.37,2013-04-21 00:29:00,
2013-04-20 18:34:00,34.7,30.4,29.85,SSE,158,13.1,16.6,84,0.00,OVC,,0.00,WeatherDisplay:10.37,2013-04-21 00:34:00,
2013-04-20 18:39:00,34.7,30.4,29.85,South,180,11.9,11.9,84,0.00,OVC,,0.00,WeatherDisplay:10.37,2013-04-21 00:39:00,
2013-04-20 18:44:00,34.5,30.2,29.85,South,180,10.1,15.0,84,0.00,OVC,,0.00,WeatherDisplay:10.37,2013-04-21 00:44:00,
2013-04-20 18:49:00,34.3,30.0,29.85,South,180,14.6,16.1,84,0.00,OVC,,0.00,WeatherDisplay:10.37,2013-04-21 00:49:00,
2013-04-20 18:54:00,34.3,30.3,29.86,SSE,158,8.8,10.4,85,0.00,OVC,,0.00,WeatherDisplay:10.37,2013-04-21 00:54:00,
2013-04-20 18:59:00,34.2,30.2,29.86,ESE,112,10.7,13.8,85,0.00,OVC,,0.00,WeatherDisplay:10.37,2013-04-21 00:59:00,
2013-04-20 19:04:00,34.2,30.4,29.86,SE,135,10.2,13.5,86,0.00,OVC,,0.00,WeatherDisplay:10.37,2013-04-21 01:04:00,
2013-04-20 19:09:00,34.0,30.3,29.86,SSE,158,7.8,9.2,86,0.00,OVC,,0.00,WeatherDisplay:10.37,2013-04-21 01:09:00,
2013-04-20 19:14:00,34.0,30.3,29.86,SSE,158,7.7,10.4,86,0.00,OVC,,0.00,WeatherDisplay:10.37,2013-04-21 01:14:00,
2013-04-20 19:19:00,34.0,30.5,29.87,SE,135,6.1,9.2,87,0.00,OVC,,0.00,WeatherDisplay:10.37,2013-04-21 01:19:00,
2013-04-20 19:24:00,34.0,30.5,29.87,SSW,202,7.0,10.4,87,0.00,OVC,,0.00,WeatherDisplay:10.37,2013-04-21 01:24:00,
2013-04-20 19:29:00,34.0,30.5,29.86,SE,135,8.2,10.4,87,0.00,OVC,,0.00,WeatherDisplay:10.37,2013-04-21 01:29:00,
2013-04-20 19:34:00,34.2,30.7,29.86,SE,135,10.1,12.7,87,0.00,OVC,,0.00,WeatherDisplay:10.37,2013-04-21 01:34:00,
2013-04-20 19:39:00,34.2,30.7,29.86,SE,135,5.0,5.8,87,0.00,OVC,,0.00,WeatherDisplay:10.37,2013-04-21 01:39:00,
2013-04-20 19:44:00,34.2,30.7,29.86,SE,135,7.0,9.2,87,0.00,OVC,,0.00,WeatherDisplay:10.37,2013-04-21 01:44:00,
2013-04-20 19:49:00,34.2,30.7,29.86,South,180,6.5,8.1,87,0.00,OVC,,0.00,WeatherDisplay:10.37,2013-04-21 01:49:00,
2013-04-20 19:54:00,34.2,31.0,29.86,SSE,158,8.5,10.9,88,0.00,OVC,,0.00,WeatherDisplay:10.37,2013-04-21 01:54:00,
2013-04-20 19:59:00,34.0,30.8,29.86,SSE,158,8.4,9.9,88,0.00,OVC,,0.00,WeatherDisplay:10.37,2013-04-21 01:59:00,
2013-04-20 20:04:00,34.0,30.8,29.86,SSE,158,7.3,8.1,88,0.00,OVC,,0.00,WeatherDisplay:10.37,2013-04-21 02:04:00,
2013-04-20 20:09:00,34.0,30.8,29.86,SE,135,7.8,9.2,88,0.00,OVC,,0.00,WeatherDisplay:10.37,2013-04-21 02:09:00,
2013-04-20 20:14:00,33.8,30.6,29.86,ESE,112,8.4,10.4,88,0.00,OVC,,0.00,WeatherDisplay:10.37,2013-04-21 02:14:00,
2013-04-20 20:19:00,33.8,30.6,29.87,SE,135,7.3,7.3,88,0.00,OVC,,0.00,WeatherDisplay:10.37,2013-04-21 02:19:00,
2013-04-20 20:24:00,33.8,30.9,29.87,SE,135,5.0,6.9,89,0.00,OVC,,0.00,WeatherDisplay:10.37,2013-04-21 02:24:00,
2013-04-20 20:29:00,33.8,30.9,29.86,SE,135,5.8,7.8,89,0.00,OVC,,0.00,WeatherDisplay:10.37,2013-04-21 02:29:00,
2013-04-20 20:34:00,33.6,30.7,29.86,ESE,112,7.6,9.2,89,0.00,OVC,,0.00,WeatherDisplay:10.37,2013-04-21 02:34:00,
2013-04-20 20:39:00,33.6,30.7,29.86,ESE,112,6.4,8.1,89,0.00,OVC,,0.00,WeatherDisplay:10.37,2013-04-21 02:39:00,
2013-04-20 20:44:00,33.6,31.0,29.86,SE,135,7.1,10.4,90,0.00,OVC,,0.00,WeatherDisplay:10.37,2013-04-21 02:44:00,
2013-04-20 20:49:00,33.6,31.0,29.86,South,180,7.9,9.2,90,0.00,OVC,,0.00,WeatherDisplay:10.37,2013-04-21 02:49:00,
2013-04-20 20:54:00,33.6,31.0,29.86,SE,135,6.1,6.9,90,0.00,OVC,,0.00,WeatherDisplay:10.37,2013-04-21 02:54:00,
2013-04-20 20:59:00,33.6,31.0,29.86,SSE,158,8.3,9.4,90,0.00,OVC,,0.00,WeatherDisplay:10.37,2013-04-21 02:59:00,
2013-04-20 21:04:00,33.6,31.0,29.86,SSE,158,8.1,9.2,90,0.00,OVC,,0.00,WeatherDisplay:10.37,2013-04-21 03:04:00,
2013-04-20 21:09:00,33.6,31.0,29.86,ESE,112,7.4,9.2,90,0.00,OVC,,0.00,WeatherDisplay:10.37,2013-04-21 03:09:00,
2013-04-20 21:14:00,33.4,31.1,29.86,ESE,112,7.2,8.1,91,0.00,OVC,,0.00,WeatherDisplay:10.37,2013-04-21 03:14:00,
2013-04-20 21:19:00,33.4,31.1,29.86,SSE,158,5.9,6.9,91,0.00,OVC,,0.00,WeatherDisplay:10.37,2013-04-21 03:19:00,
2013-04-20 21:24:00,33.3,31.2,29.86,ESE,112,5.9,10.4,92,0.00,OVC,,0.00,WeatherDisplay:10.37,2013-04-21 03:24:00,
2013-04-20 21:29:00,33.3,31.2,29.85,SE,135,6.5,9.2,92,0.00,OVC,,0.00,WeatherDisplay:10.37,2013-04-21 03:29:00,
2013-04-20 21:34:00,33.1,31.0,29.85,SE,135,9.0,10.4,92,0.00,OVC,,0.00,WeatherDisplay:10.37,2013-04-21 03:34:00,
2013-04-20 21:39:00,33.1,31.0,29.85,South,180,7.9,9.2,92,0.00,OVC,,0.00,WeatherDisplay:10.37,2013-04-21 03:39:00,
2013-04-20 21:44:00,33.1,31.0,29.85,SE,135,7.9,9.2,92,0.00,OVC,,0.00,WeatherDisplay:10.37,2013-04-21 03:44:00,
2013-04-20 21:49:00,33.1,31.0,29.85,SSE,158,7.7,10.4,92,0.00,OVC,,0.00,WeatherDisplay:10.37,2013-04-21 03:49:00,
2013-04-20 21:54:00,33.1,31.0,29.85,ESE,112,6.0,10.9,92,0.00,OVC,,0.00,WeatherDisplay:10.37,2013-04-21 03:54:00,
2013-04-20 21:59:00,33.1,31.0,29.85,ESE,112,4.7,8.1,92,0.00,OVC,,0.00,WeatherDisplay:10.37,2013-04-21 03:59:00,
2013-04-20 22:01:00,33.1,31.0,29.85,ESE,112,4.7,4.7,92,0.00,OVC,,0.00,WeatherDisplay:10.37,2013-04-21 04:01:00,
2013-04-20 22:06:00,33.1,31.0,29.85,SE,135,8.6,10.4,92,0.00,OVC,,0.00,WeatherDisplay:10.37,2013-04-21 04:06:00,
2013-04-20 22:11:00,33.1,31.0,29.85,ESE,112,7.3,9.2,92,0.00,OVC,,0.00,WeatherDisplay:10.37,2013-04-21 04:11:00,
2013-04-20 22:16:00,32.9,31.1,29.85,SE,135,7.7,10.4,93,0.00,OVC,,0.00,WeatherDisplay:10.37,2013-04-21 04:16:00,
2013-04-20 22:21:00,32.9,31.1,29.85,SSE,158,9.9,11.5,93,0.00,OVC,,0.00,WeatherDisplay:10.37,2013-04-21 04:21:00,
2013-04-20 22:26:00,32.9,31.1,29.85,SSE,158,8.4,11.5,93,0.00,OVC,,0.00,WeatherDisplay:10.37,2013-04-21 04:26:00,
2013-04-20 22:31:00,32.9,31.1,29.85,SSE,158,4.3,5.8,93,0.00,OVC,,0.00,WeatherDisplay:10.37,2013-04-21 04:31:00,
2013-04-20 22:36:00,32.9,31.1,29.85,SSE,158,7.2,8.1,93,0.00,OVC,,0.00,WeatherDisplay:10.37,2013-04-21 04:36:00,
2013-04-20 22:41:00,32.9,31.1,29.85,SE,135,6.1,7.3,93,0.00,OVC,,0.00,WeatherDisplay:10.37,2013-04-21 04:41:00,
2013-04-20 22:46:00,32.9,31.1,29.85,SSE,158,6.6,8.8,93,0.00,OVC,,0.00,WeatherDisplay:10.37,2013-04-21 04:46:00,
2013-04-20 22:51:00,32.9,31.1,29.85,SSE,158,7.1,7.1,93,0.00,OVC,,0.00,WeatherDisplay:10.37,2013-04-21 04:51:00,
2013-04-20 22:56:00,32.9,31.1,29.85,SSE,158,3.8,8.1,93,0.00,OVC,,0.00,WeatherDisplay:10.37,2013-04-21 04:56:00,
2013-04-20 23:02:00,32.9,31.4,29.85,SSE,158,6.1,8.1,94,0.00,OVC,,0.00,WeatherDisplay:10.37,2013-04-21 05:02:00,
2013-04-20 23:06:00,32.9,31.4,29.85,SSE,158,7.6,9.2,94,0.00,OVC,,0.00,WeatherDisplay:10.37,2013-04-21 05:06:00,
2013-04-20 23:12:00,32.9,31.4,29.85,ESE,112,6.7,8.1,94,0.00,OVC,,0.00,WeatherDisplay:10.37,2013-04-21 05:12:00,
2013-04-20 23:17:00,32.9,31.4,29.85,ESE,112,6.3,6.9,94,0.00,OVC,,0.00,WeatherDisplay:10.37,2013-04-21 05:17:00,
2013-04-20 23:22:00,32.9,31.4,29.85,SE,135,4.6,5.8,94,0.00,OVC,,0.00,WeatherDisplay:10.37,2013-04-21 05:22:00,
2013-04-20 23:27:00,32.9,31.4,29.85,ESE,112,7.3,7.3,94,0.00,OVC,,0.00,WeatherDisplay:10.37,2013-04-21 05:27:00,
2013-04-20 23:32:00,32.9,31.4,29.85,SSE,158,6.3,6.9,94,0.00,OVC,,0.00,WeatherDisplay:10.37,2013-04-21 05:32:00,
2013-04-20 23:37:00,32.9,31.4,29.85,SSE,158,5.2,7.3,94,0.00,OVC,,0.00,WeatherDisplay:10.37,2013-04-21 05:37:00,
2013-04-20 23:42:00,32.9,31.4,29.84,SSE,158,6.4,6.9,94,0.00,OVC,,0.00,WeatherDisplay:10.37,2013-04-21 05:42:00,
2013-04-20 23:47:00,32.9,31.4,29.84,SSE,158,6.1,8.1,94,0.00,OVC,,0.00,WeatherDisplay:10.37,2013-04-21 05:47:00,
2013-04-20 23:52:00,32.9,31.4,29.85,SSE,158,5.3,6.3,94,0.00,OVC,,0.00,WeatherDisplay:10.37,2013-04-21 05:52:00,
2013-04-20 23:57:00,33.1,31.8,29.85,SSE,158,6.1,6.9,95,0.00,OVC,,0.00,WeatherDisplay:10.37,2013-04-21 05:57:00,